sensor_id;sensor_type;location;lat;lon;timestamp;P1;durP1;ratioP1;P2;durP2;ratioP2
7045;SDS011;3564;53.326;10.356;2022-08-30T00:01:13;2.63;;;1.60;;
7045;SDS011;3564;53.326;10.356;2022-08-30T00:03:45;1.80;;;1.53;;
7045;SDS011;3564;53.326;10.356;2022-08-30T00:06:11;1.63;;;1.50;;
7045;SDS011;3564;53.326;10.356;2022-08-30T00:08:39;8.03;;;2.03;;
7045;SDS011;3564;53.326;10.356;2022-08-30T00:11:06;2.33;;;2.00;;
7045;SDS011;3564;53.326;10.356;2022-08-30T00:13:39;2.60;;;1.63;;
7045;SDS011;3564;53.326;10.356;2022-08-30T00:16:06;2.77;;;1.87;;
7045;SDS011;3564;53.326;10.356;2022-08-30T00:18:33;3.00;;;1.70;;
7045;SDS011;3564;53.326;10.356;2022-08-30T00:20:59;4.93;;;1.60;;
7045;SDS011;3564;53.326;10.356;2022-08-30T00:23:28;3.33;;;1.57;;
7045;SDS011;3564;53.326;10.356;2022-08-30T00:25:53;2.30;;;1.50;;
7045;SDS011;3564;53.326;10.356;2022-08-30T00:28:19;2.83;;;2.00;;
7045;SDS011;3564;53.326;10.356;2022-08-30T00:30:45;1.90;;;1.70;;
7045;SDS011;3564;53.326;10.356;2022-08-30T00:33:12;1.80;;;1.70;;
7045;SDS011;3564;53.326;10.356;2022-08-30T00:35:39;1.77;;;1.60;;
7045;SDS011;3564;53.326;10.356;2022-08-30T00:38:05;3.57;;;1.70;;
7045;SDS011;3564;53.326;10.356;2022-08-30T00:40:32;2.87;;;1.80;;
7045;SDS011;3564;53.326;10.356;2022-08-30T00:42:58;2.80;;;1.97;;
7045;SDS011;3564;53.326;10.356;2022-08-30T00:45:28;1.60;;;1.50;;
7045;SDS011;3564;53.326;10.356;2022-08-30T00:47:55;2.47;;;1.60;;
7045;SDS011;3564;53.326;10.356;2022-08-30T00:50:24;2.63;;;1.80;;
7045;SDS011;3564;53.326;10.356;2022-08-30T00:52:53;3.03;;;1.60;;
7045;SDS011;3564;53.326;10.356;2022-08-30T00:55:21;1.90;;;1.70;;
7045;SDS011;3564;53.326;10.356;2022-08-30T00:57:47;2.03;;;1.50;;
7045;SDS011;3564;53.326;10.356;2022-08-30T01:00:18;2.23;;;1.60;;
7045;SDS011;3564;53.326;10.356;2022-08-30T01:02:43;3.87;;;1.50;;
7045;SDS011;3564;53.326;10.356;2022-08-30T01:05:09;1.83;;;1.53;;
7045;SDS011;3564;53.326;10.356;2022-08-30T01:07:37;4.17;;;1.50;;
7045;SDS011;3564;53.326;10.356;2022-08-30T01:10:04;3.10;;;1.60;;
7045;SDS011;3564;53.326;10.356;2022-08-30T01:12:30;2.97;;;1.77;;
7045;SDS011;3564;53.326;10.356;2022-08-30T01:14:56;2.90;;;1.80;;
7045;SDS011;3564;53.326;10.356;2022-08-30T01:17:23;2.90;;;1.60;;
7045;SDS011;3564;53.326;10.356;2022-08-30T01:19:53;2.27;;;1.57;;
7045;SDS011;3564;53.326;10.356;2022-08-30T01:24:57;4.43;;;1.60;;
7045;SDS011;3564;53.326;10.356;2022-08-30T01:27:24;1.77;;;1.63;;
7045;SDS011;3564;53.326;10.356;2022-08-30T01:29:52;3.20;;;1.67;;
7045;SDS011;3564;53.326;10.356;2022-08-30T01:32:20;2.60;;;1.67;;
7045;SDS011;3564;53.326;10.356;2022-08-30T01:34:48;1.87;;;1.53;;
7045;SDS011;3564;53.326;10.356;2022-08-30T01:37:15;1.90;;;1.57;;
7045;SDS011;3564;53.326;10.356;2022-08-30T01:39:45;3.73;;;1.80;;
7045;SDS011;3564;53.326;10.356;2022-08-30T01:42:11;2.40;;;1.70;;
7045;SDS011;3564;53.326;10.356;2022-08-30T01:44:38;4.83;;;1.80;;
7045;SDS011;3564;53.326;10.356;2022-08-30T01:47:03;5.30;;;1.80;;
7045;SDS011;3564;53.326;10.356;2022-08-30T01:49:29;4.10;;;1.83;;
7045;SDS011;3564;53.326;10.356;2022-08-30T01:51:55;5.37;;;1.70;;
7045;SDS011;3564;53.326;10.356;2022-08-30T01:54:22;2.57;;;1.63;;
7045;SDS011;3564;53.326;10.356;2022-08-30T01:56:47;3.00;;;1.87;;
7045;SDS011;3564;53.326;10.356;2022-08-30T01:59:13;5.67;;;1.80;;
7045;SDS011;3564;53.326;10.356;2022-08-30T02:01:38;2.63;;;1.80;;
7045;SDS011;3564;53.326;10.356;2022-08-30T02:04:05;1.93;;;1.57;;
7045;SDS011;3564;53.326;10.356;2022-08-30T02:06:32;4.57;;;1.70;;
7045;SDS011;3564;53.326;10.356;2022-08-30T02:08:58;5.50;;;2.00;;
7045;SDS011;3564;53.326;10.356;2022-08-30T02:11:24;2.40;;;1.70;;
7045;SDS011;3564;53.326;10.356;2022-08-30T02:13:50;5.07;;;2.03;;
7045;SDS011;3564;53.326;10.356;2022-08-30T02:16:18;2.47;;;1.67;;
7045;SDS011;3564;53.326;10.356;2022-08-30T02:18:47;1.90;;;1.73;;
7045;SDS011;3564;53.326;10.356;2022-08-30T02:21:14;3.93;;;1.87;;
7045;SDS011;3564;53.326;10.356;2022-08-30T02:23:41;4.67;;;1.87;;
7045;SDS011;3564;53.326;10.356;2022-08-30T02:26:07;5.17;;;1.90;;
7045;SDS011;3564;53.326;10.356;2022-08-30T02:28:33;2.40;;;1.80;;
7045;SDS011;3564;53.326;10.356;2022-08-30T02:30:59;2.43;;;2.17;;
7045;SDS011;3564;53.326;10.356;2022-08-30T02:33:25;3.17;;;2.00;;
7045;SDS011;3564;53.326;10.356;2022-08-30T02:35:51;3.50;;;2.20;;
7045;SDS011;3564;53.326;10.356;2022-08-30T02:38:17;2.77;;;2.10;;
7045;SDS011;3564;53.326;10.356;2022-08-30T02:40:42;2.90;;;2.03;;
7045;SDS011;3564;53.326;10.356;2022-08-30T02:43:09;3.37;;;1.90;;
7045;SDS011;3564;53.326;10.356;2022-08-30T02:45:35;6.20;;;2.10;;
7045;SDS011;3564;53.326;10.356;2022-08-30T02:48:00;4.20;;;2.20;;
7045;SDS011;3564;53.326;10.356;2022-08-30T02:50:26;3.70;;;2.03;;
7045;SDS011;3564;53.326;10.356;2022-08-30T02:52:52;3.37;;;2.10;;
7045;SDS011;3564;53.326;10.356;2022-08-30T02:55:18;3.60;;;2.30;;
7045;SDS011;3564;53.326;10.356;2022-08-30T02:57:43;3.47;;;1.90;;
7045;SDS011;3564;53.326;10.356;2022-08-30T03:00:11;1.80;;;1.60;;
7045;SDS011;3564;53.326;10.356;2022-08-30T03:02:40;2.67;;;1.90;;
7045;SDS011;3564;53.326;10.356;2022-08-30T03:05:07;2.67;;;2.20;;
7045;SDS011;3564;53.326;10.356;2022-08-30T03:07:33;3.07;;;2.03;;
7045;SDS011;3564;53.326;10.356;2022-08-30T03:09:59;3.33;;;2.17;;
7045;SDS011;3564;53.326;10.356;2022-08-30T03:12:25;5.73;;;2.37;;
7045;SDS011;3564;53.326;10.356;2022-08-30T03:14:50;2.70;;;2.00;;
7045;SDS011;3564;53.326;10.356;2022-08-30T03:17:16;2.93;;;1.80;;
7045;SDS011;3564;53.326;10.356;2022-08-30T03:19:42;2.67;;;2.17;;
7045;SDS011;3564;53.326;10.356;2022-08-30T03:22:09;3.27;;;1.90;;
7045;SDS011;3564;53.326;10.356;2022-08-30T03:24:37;3.60;;;2.17;;
7045;SDS011;3564;53.326;10.356;2022-08-30T03:27:02;3.37;;;2.00;;
7045;SDS011;3564;53.326;10.356;2022-08-30T03:29:28;3.20;;;1.97;;
7045;SDS011;3564;53.326;10.356;2022-08-30T03:31:54;5.47;;;1.80;;
7045;SDS011;3564;53.326;10.356;2022-08-30T03:34:25;4.27;;;2.47;;
7045;SDS011;3564;53.326;10.356;2022-08-30T03:36:51;2.80;;;1.83;;
7045;SDS011;3564;53.326;10.356;2022-08-30T03:39:19;3.87;;;1.87;;
7045;SDS011;3564;53.326;10.356;2022-08-30T03:41:45;3.37;;;2.00;;
7045;SDS011;3564;53.326;10.356;2022-08-30T03:44:11;2.67;;;1.83;;
7045;SDS011;3564;53.326;10.356;2022-08-30T03:46:37;3.83;;;2.10;;
7045;SDS011;3564;53.326;10.356;2022-08-30T03:49:03;3.60;;;2.00;;
7045;SDS011;3564;53.326;10.356;2022-08-30T03:51:30;3.73;;;1.63;;
7045;SDS011;3564;53.326;10.356;2022-08-30T03:53:56;1.83;;;1.73;;
7045;SDS011;3564;53.326;10.356;2022-08-30T03:56:21;3.80;;;1.97;;
7045;SDS011;3564;53.326;10.356;2022-08-30T03:58:47;3.40;;;2.20;;
7045;SDS011;3564;53.326;10.356;2022-08-30T04:01:12;4.23;;;2.60;;
7045;SDS011;3564;53.326;10.356;2022-08-30T04:03:38;3.80;;;2.23;;
7045;SDS011;3564;53.326;10.356;2022-08-30T04:06:04;4.33;;;2.17;;
7045;SDS011;3564;53.326;10.356;2022-08-30T04:08:29;4.13;;;2.50;;
7045;SDS011;3564;53.326;10.356;2022-08-30T04:10:55;5.03;;;2.37;;
7045;SDS011;3564;53.326;10.356;2022-08-30T04:13:22;3.57;;;2.57;;
7045;SDS011;3564;53.326;10.356;2022-08-30T04:15:48;3.90;;;3.00;;
7045;SDS011;3564;53.326;10.356;2022-08-30T04:18:14;7.57;;;2.70;;
7045;SDS011;3564;53.326;10.356;2022-08-30T04:20:40;4.93;;;2.40;;
7045;SDS011;3564;53.326;10.356;2022-08-30T04:23:06;2.73;;;2.10;;
7045;SDS011;3564;53.326;10.356;2022-08-30T04:25:35;2.20;;;2.00;;
7045;SDS011;3564;53.326;10.356;2022-08-30T04:28:17;4.13;;;2.27;;
7045;SDS011;3564;53.326;10.356;2022-08-30T04:30:43;2.40;;;2.10;;
7045;SDS011;3564;53.326;10.356;2022-08-30T04:33:10;4.40;;;2.23;;
7045;SDS011;3564;53.326;10.356;2022-08-30T04:35:39;3.07;;;2.30;;
7045;SDS011;3564;53.326;10.356;2022-08-30T04:38:06;4.03;;;2.40;;
7045;SDS011;3564;53.326;10.356;2022-08-30T04:40:33;3.10;;;2.27;;
7045;SDS011;3564;53.326;10.356;2022-08-30T04:43:00;2.43;;;1.90;;
7045;SDS011;3564;53.326;10.356;2022-08-30T04:45:25;3.43;;;2.60;;
7045;SDS011;3564;53.326;10.356;2022-08-30T04:47:51;3.30;;;2.07;;
7045;SDS011;3564;53.326;10.356;2022-08-30T04:50:17;3.63;;;2.20;;
7045;SDS011;3564;53.326;10.356;2022-08-30T04:52:44;2.50;;;2.30;;
7045;SDS011;3564;53.326;10.356;2022-08-30T04:55:10;5.13;;;2.50;;
7045;SDS011;3564;53.326;10.356;2022-08-30T04:57:37;4.30;;;2.37;;
7045;SDS011;3564;53.326;10.356;2022-08-30T05:00:06;3.60;;;2.40;;
7045;SDS011;3564;53.326;10.356;2022-08-30T05:02:35;3.80;;;2.20;;
7045;SDS011;3564;53.326;10.356;2022-08-30T05:05:02;2.57;;;1.97;;
7045;SDS011;3564;53.326;10.356;2022-08-30T05:07:48;4.47;;;2.20;;
7045;SDS011;3564;53.326;10.356;2022-08-30T05:10:14;2.50;;;2.07;;
7045;SDS011;3564;53.326;10.356;2022-08-30T05:12:40;3.03;;;2.03;;
7045;SDS011;3564;53.326;10.356;2022-08-30T05:15:08;3.07;;;2.20;;
7045;SDS011;3564;53.326;10.356;2022-08-30T05:17:36;3.03;;;2.00;;
7045;SDS011;3564;53.326;10.356;2022-08-30T05:20:03;4.47;;;1.90;;
7045;SDS011;3564;53.326;10.356;2022-08-30T05:22:30;2.30;;;2.00;;
7045;SDS011;3564;53.326;10.356;2022-08-30T05:24:56;5.17;;;2.20;;
7045;SDS011;3564;53.326;10.356;2022-08-30T05:27:21;3.03;;;2.23;;
7045;SDS011;3564;53.326;10.356;2022-08-30T05:29:47;4.37;;;2.10;;
7045;SDS011;3564;53.326;10.356;2022-08-30T05:32:12;2.83;;;1.83;;
7045;SDS011;3564;53.326;10.356;2022-08-30T05:34:38;2.23;;;2.00;;
7045;SDS011;3564;53.326;10.356;2022-08-30T05:37:04;2.63;;;2.37;;
7045;SDS011;3564;53.326;10.356;2022-08-30T05:39:29;3.90;;;2.13;;
7045;SDS011;3564;53.326;10.356;2022-08-30T05:41:55;3.47;;;1.83;;
7045;SDS011;3564;53.326;10.356;2022-08-30T05:44:21;3.20;;;2.30;;
7045;SDS011;3564;53.326;10.356;2022-08-30T05:46:47;3.23;;;2.47;;
7045;SDS011;3564;53.326;10.356;2022-08-30T05:49:13;4.33;;;1.80;;
7045;SDS011;3564;53.326;10.356;2022-08-30T05:51:39;3.13;;;2.13;;
7045;SDS011;3564;53.326;10.356;2022-08-30T05:54:05;4.23;;;2.10;;
7045;SDS011;3564;53.326;10.356;2022-08-30T05:56:32;4.03;;;2.00;;
7045;SDS011;3564;53.326;10.356;2022-08-30T05:59:00;5.20;;;1.90;;
7045;SDS011;3564;53.326;10.356;2022-08-30T06:01:28;4.17;;;2.10;;
7045;SDS011;3564;53.326;10.356;2022-08-30T06:03:56;2.47;;;1.83;;
7045;SDS011;3564;53.326;10.356;2022-08-30T06:06:24;3.63;;;2.13;;
7045;SDS011;3564;53.326;10.356;2022-08-30T06:08:50;2.87;;;2.00;;
7045;SDS011;3564;53.326;10.356;2022-08-30T06:11:17;2.43;;;1.90;;
7045;SDS011;3564;53.326;10.356;2022-08-30T06:13:46;5.03;;;2.13;;
7045;SDS011;3564;53.326;10.356;2022-08-30T06:16:12;2.60;;;1.90;;
7045;SDS011;3564;53.326;10.356;2022-08-30T06:18:39;4.67;;;1.90;;
7045;SDS011;3564;53.326;10.356;2022-08-30T06:21:05;3.20;;;2.00;;
7045;SDS011;3564;53.326;10.356;2022-08-30T06:23:31;3.33;;;2.10;;
7045;SDS011;3564;53.326;10.356;2022-08-30T06:26:02;2.57;;;1.70;;
7045;SDS011;3564;53.326;10.356;2022-08-30T06:28:32;1.90;;;1.80;;
7045;SDS011;3564;53.326;10.356;2022-08-30T06:30:58;2.00;;;1.80;;
7045;SDS011;3564;53.326;10.356;2022-08-30T06:33:23;2.77;;;1.87;;
7045;SDS011;3564;53.326;10.356;2022-08-30T06:35:50;3.77;;;1.77;;
7045;SDS011;3564;53.326;10.356;2022-08-30T06:38:15;2.80;;;1.80;;
7045;SDS011;3564;53.326;10.356;2022-08-30T06:40:41;2.83;;;1.70;;
7045;SDS011;3564;53.326;10.356;2022-08-30T06:43:07;3.33;;;1.90;;
7045;SDS011;3564;53.326;10.356;2022-08-30T06:45:33;2.43;;;1.80;;
7045;SDS011;3564;53.326;10.356;2022-08-30T06:47:59;2.50;;;1.70;;
7045;SDS011;3564;53.326;10.356;2022-08-30T06:50:25;2.33;;;1.93;;
7045;SDS011;3564;53.326;10.356;2022-08-30T06:52:51;1.90;;;1.63;;
7045;SDS011;3564;53.326;10.356;2022-08-30T06:55:17;2.40;;;1.70;;
7045;SDS011;3564;53.326;10.356;2022-08-30T06:57:43;3.67;;;2.13;;
7045;SDS011;3564;53.326;10.356;2022-08-30T07:00:11;2.00;;;1.80;;
7045;SDS011;3564;53.326;10.356;2022-08-30T07:02:39;2.80;;;1.87;;
7045;SDS011;3564;53.326;10.356;2022-08-30T07:05:05;4.27;;;2.03;;
7045;SDS011;3564;53.326;10.356;2022-08-30T07:07:32;4.13;;;1.90;;
7045;SDS011;3564;53.326;10.356;2022-08-30T07:10:00;3.53;;;1.87;;
7045;SDS011;3564;53.326;10.356;2022-08-30T07:12:27;2.67;;;2.07;;
7045;SDS011;3564;53.326;10.356;2022-08-30T07:14:53;3.43;;;1.80;;
7045;SDS011;3564;53.326;10.356;2022-08-30T07:17:18;3.90;;;1.80;;
7045;SDS011;3564;53.326;10.356;2022-08-30T07:20:03;2.17;;;1.80;;
7045;SDS011;3564;53.326;10.356;2022-08-30T07:22:30;2.40;;;1.80;;
7045;SDS011;3564;53.326;10.356;2022-08-30T07:24:57;1.50;;;1.40;;
7045;SDS011;3564;53.326;10.356;2022-08-30T07:27:23;2.53;;;1.90;;
7045;SDS011;3564;53.326;10.356;2022-08-30T07:29:48;4.53;;;1.80;;
7045;SDS011;3564;53.326;10.356;2022-08-30T07:32:14;3.27;;;1.80;;
7045;SDS011;3564;53.326;10.356;2022-08-30T07:34:40;3.53;;;1.93;;
7045;SDS011;3564;53.326;10.356;2022-08-30T07:37:05;2.23;;;1.60;;
7045;SDS011;3564;53.326;10.356;2022-08-30T07:39:31;2.70;;;1.60;;
7045;SDS011;3564;53.326;10.356;2022-08-30T07:41:57;2.20;;;1.97;;
7045;SDS011;3564;53.326;10.356;2022-08-30T07:44:23;2.10;;;1.90;;
7045;SDS011;3564;53.326;10.356;2022-08-30T07:46:48;3.23;;;2.00;;
7045;SDS011;3564;53.326;10.356;2022-08-30T07:49:14;1.87;;;1.67;;
7045;SDS011;3564;53.326;10.356;2022-08-30T07:51:40;3.00;;;1.90;;
7045;SDS011;3564;53.326;10.356;2022-08-30T07:54:06;3.87;;;1.70;;
7045;SDS011;3564;53.326;10.356;2022-08-30T07:56:32;2.17;;;1.97;;
7045;SDS011;3564;53.326;10.356;2022-08-30T07:58:59;2.77;;;1.53;;
7045;SDS011;3564;53.326;10.356;2022-08-30T08:01:26;2.33;;;1.70;;
7045;SDS011;3564;53.326;10.356;2022-08-30T08:03:51;3.10;;;1.50;;
7045;SDS011;3564;53.326;10.356;2022-08-30T08:06:18;1.70;;;1.60;;
7045;SDS011;3564;53.326;10.356;2022-08-30T08:08:45;2.33;;;1.53;;
7045;SDS011;3564;53.326;10.356;2022-08-30T08:11:12;1.30;;;1.20;;
7045;SDS011;3564;53.326;10.356;2022-08-30T08:13:43;1.10;;;0.90;;
7045;SDS011;3564;53.326;10.356;2022-08-30T08:16:10;1.43;;;1.07;;
7045;SDS011;3564;53.326;10.356;2022-08-30T08:18:35;1.20;;;1.10;;
7045;SDS011;3564;53.326;10.356;2022-08-30T08:21:01;2.23;;;1.20;;
7045;SDS011;3564;53.326;10.356;2022-08-30T08:23:27;1.73;;;1.00;;
7045;SDS011;3564;53.326;10.356;2022-08-30T08:25:53;2.33;;;1.10;;
7045;SDS011;3564;53.326;10.356;2022-08-30T08:28:19;1.10;;;1.00;;
7045;SDS011;3564;53.326;10.356;2022-08-30T08:30:45;2.53;;;1.20;;
7045;SDS011;3564;53.326;10.356;2022-08-30T08:33:11;1.70;;;1.23;;
7045;SDS011;3564;53.326;10.356;2022-08-30T08:35:38;1.10;;;1.00;;
7045;SDS011;3564;53.326;10.356;2022-08-30T08:38:04;1.33;;;1.23;;
7045;SDS011;3564;53.326;10.356;2022-08-30T08:40:34;2.27;;;1.23;;
7045;SDS011;3564;53.326;10.356;2022-08-30T08:43:13;1.90;;;0.90;;
7045;SDS011;3564;53.326;10.356;2022-08-30T08:45:51;1.33;;;1.23;;
7045;SDS011;3564;53.326;10.356;2022-08-30T08:50:55;2.43;;;1.20;;
7045;SDS011;3564;53.326;10.356;2022-08-30T08:53:42;1.27;;;1.17;;
7045;SDS011;3564;53.326;10.356;2022-08-30T08:56:15;1.30;;;1.20;;
7045;SDS011;3564;53.326;10.356;2022-08-30T08:58:46;1.10;;;0.97;;
7045;SDS011;3564;53.326;10.356;2022-08-30T09:01:35;1.20;;;1.10;;
7045;SDS011;3564;53.326;10.356;2022-08-30T09:04:07;1.37;;;1.10;;
7045;SDS011;3564;53.326;10.356;2022-08-30T09:07:04;1.07;;;1.00;;
7045;SDS011;3564;53.326;10.356;2022-08-30T09:09:38;0.90;;;0.90;;
7045;SDS011;3564;53.326;10.356;2022-08-30T09:12:06;3.43;;;1.00;;
7045;SDS011;3564;53.326;10.356;2022-08-30T09:14:36;1.87;;;1.00;;
7045;SDS011;3564;53.326;10.356;2022-08-30T09:17:08;1.10;;;1.00;;
7045;SDS011;3564;53.326;10.356;2022-08-30T09:19:44;1.47;;;0.97;;
7045;SDS011;3564;53.326;10.356;2022-08-30T09:30:07;1.83;;;1.10;;
7045;SDS011;3564;53.326;10.356;2022-08-30T09:32:40;1.47;;;0.90;;
7045;SDS011;3564;53.326;10.356;2022-08-30T09:35:11;1.13;;;1.00;;
7045;SDS011;3564;53.326;10.356;2022-08-30T09:37:50;1.57;;;1.07;;
7045;SDS011;3564;53.326;10.356;2022-08-30T09:40:26;0.70;;;0.70;;
7045;SDS011;3564;53.326;10.356;2022-08-30T09:43:00;0.87;;;0.87;;
7045;SDS011;3564;53.326;10.356;2022-08-30T09:45:35;1.00;;;0.90;;
7045;SDS011;3564;53.326;10.356;2022-08-30T09:48:19;2.60;;;0.90;;
7045;SDS011;3564;53.326;10.356;2022-08-30T09:59:58;1.37;;;1.00;;
7045;SDS011;3564;53.326;10.356;2022-08-30T10:10:44;0.97;;;0.83;;
7045;SDS011;3564;53.326;10.356;2022-08-30T10:22:14;2.00;;;0.90;;
7045;SDS011;3564;53.326;10.356;2022-08-30T10:25:00;1.27;;;1.17;;
7045;SDS011;3564;53.326;10.356;2022-08-30T10:30:15;1.27;;;1.17;;
7045;SDS011;3564;53.326;10.356;2022-08-30T10:32:47;2.40;;;1.10;;
7045;SDS011;3564;53.326;10.356;2022-08-30T10:35:36;1.03;;;1.00;;
7045;SDS011;3564;53.326;10.356;2022-08-30T10:38:33;1.20;;;0.93;;
7045;SDS011;3564;53.326;10.356;2022-08-30T10:44:08;0.97;;;0.90;;
7045;SDS011;3564;53.326;10.356;2022-08-30T10:49:36;2.43;;;1.10;;
7045;SDS011;3564;53.326;10.356;2022-08-30T10:55:25;2.20;;;1.27;;
7045;SDS011;3564;53.326;10.356;2022-08-30T10:57:47;1.53;;;1.10;;
7045;SDS011;3564;53.326;10.356;2022-08-30T11:11:00;1.90;;;1.20;;
7045;SDS011;3564;53.326;10.356;2022-08-30T11:13:47;1.17;;;1.00;;
7045;SDS011;3564;53.326;10.356;2022-08-30T11:16:14;1.20;;;1.10;;
7045;SDS011;3564;53.326;10.356;2022-08-30T11:18:53;4.07;;;1.20;;
7045;SDS011;3564;53.326;10.356;2022-08-30T11:21:30;1.43;;;1.00;;
7045;SDS011;3564;53.326;10.356;2022-08-30T11:23:58;1.00;;;1.00;;
7045;SDS011;3564;53.326;10.356;2022-08-30T11:32:18;1.63;;;1.10;;
7045;SDS011;3564;53.326;10.356;2022-08-30T11:34:52;1.30;;;1.20;;
7045;SDS011;3564;53.326;10.356;2022-08-30T11:42:44;1.20;;;1.10;;
7045;SDS011;3564;53.326;10.356;2022-08-30T11:47:49;1.80;;;1.17;;
7045;SDS011;3564;53.326;10.356;2022-08-30T11:58:38;1.63;;;1.40;;
7045;SDS011;3564;53.326;10.356;2022-08-30T12:04:03;1.37;;;1.17;;
7045;SDS011;3564;53.326;10.356;2022-08-30T12:09:10;1.20;;;1.10;;
7045;SDS011;3564;53.326;10.356;2022-08-30T12:11:59;1.40;;;1.17;;
7045;SDS011;3564;53.326;10.356;2022-08-30T12:14:35;1.63;;;1.30;;
7045;SDS011;3564;53.326;10.356;2022-08-30T12:20:14;2.07;;;1.00;;
7045;SDS011;3564;53.326;10.356;2022-08-30T12:22:54;1.03;;;1.03;;
7045;SDS011;3564;53.326;10.356;2022-08-30T12:27:49;1.20;;;1.10;;
7045;SDS011;3564;53.326;10.356;2022-08-30T12:30:22;1.20;;;1.10;;
7045;SDS011;3564;53.326;10.356;2022-08-30T12:32:51;1.30;;;1.20;;
7045;SDS011;3564;53.326;10.356;2022-08-30T12:35:22;1.60;;;1.30;;
7045;SDS011;3564;53.326;10.356;2022-08-30T12:38:02;1.70;;;1.20;;
7045;SDS011;3564;53.326;10.356;2022-08-30T12:40:31;1.07;;;1.07;;
7045;SDS011;3564;53.326;10.356;2022-08-30T12:43:03;4.33;;;1.23;;
7045;SDS011;3564;53.326;10.356;2022-08-30T12:45:31;3.43;;;1.30;;
7045;SDS011;3564;53.326;10.356;2022-08-30T12:48:08;1.53;;;1.30;;
7045;SDS011;3564;53.326;10.356;2022-08-30T12:50:42;3.70;;;1.33;;
7045;SDS011;3564;53.326;10.356;2022-08-30T12:53:16;2.57;;;1.40;;
7045;SDS011;3564;53.326;10.356;2022-08-30T12:56:01;3.90;;;1.57;;
7045;SDS011;3564;53.326;10.356;2022-08-30T12:58:39;1.70;;;1.60;;
7045;SDS011;3564;53.326;10.356;2022-08-30T13:01:16;3.33;;;1.50;;
7045;SDS011;3564;53.326;10.356;2022-08-30T13:06:47;3.20;;;1.50;;
7045;SDS011;3564;53.326;10.356;2022-08-30T13:11:51;2.40;;;1.53;;
7045;SDS011;3564;53.326;10.356;2022-08-30T13:14:19;3.03;;;1.47;;
7045;SDS011;3564;53.326;10.356;2022-08-30T13:19:44;1.83;;;1.27;;
7045;SDS011;3564;53.326;10.356;2022-08-30T13:22:59;2.63;;;1.47;;
7045;SDS011;3564;53.326;10.356;2022-08-30T13:25:26;2.67;;;1.57;;
7045;SDS011;3564;53.326;10.356;2022-08-30T13:27:54;3.73;;;1.50;;
7045;SDS011;3564;53.326;10.356;2022-08-30T13:30:19;4.67;;;1.60;;
7045;SDS011;3564;53.326;10.356;2022-08-30T13:32:45;1.97;;;1.30;;
7045;SDS011;3564;53.326;10.356;2022-08-30T13:35:11;2.17;;;1.23;;
7045;SDS011;3564;53.326;10.356;2022-08-30T13:37:36;1.57;;;1.30;;
7045;SDS011;3564;53.326;10.356;2022-08-30T13:40:06;4.23;;;1.57;;
7045;SDS011;3564;53.326;10.356;2022-08-30T13:42:33;4.50;;;1.30;;
7045;SDS011;3564;53.326;10.356;2022-08-30T13:44:59;1.43;;;1.30;;
7045;SDS011;3564;53.326;10.356;2022-08-30T13:47:25;2.17;;;1.10;;
7045;SDS011;3564;53.326;10.356;2022-08-30T13:49:50;3.33;;;1.50;;
7045;SDS011;3564;53.326;10.356;2022-08-30T13:52:17;3.77;;;1.40;;
7045;SDS011;3564;53.326;10.356;2022-08-30T13:54:47;3.80;;;1.30;;
7045;SDS011;3564;53.326;10.356;2022-08-30T13:57:13;1.20;;;1.10;;
7045;SDS011;3564;53.326;10.356;2022-08-30T13:59:40;5.90;;;1.60;;
7045;SDS011;3564;53.326;10.356;2022-08-30T14:02:06;2.70;;;1.20;;
7045;SDS011;3564;53.326;10.356;2022-08-30T14:04:31;5.40;;;1.70;;
7045;SDS011;3564;53.326;10.356;2022-08-30T14:06:57;2.83;;;1.10;;
7045;SDS011;3564;53.326;10.356;2022-08-30T14:09:22;1.60;;;1.10;;
7045;SDS011;3564;53.326;10.356;2022-08-30T14:11:48;2.13;;;1.20;;
7045;SDS011;3564;53.326;10.356;2022-08-30T14:14:13;1.67;;;1.30;;
7045;SDS011;3564;53.326;10.356;2022-08-30T14:16:40;2.13;;;1.10;;
7045;SDS011;3564;53.326;10.356;2022-08-30T14:19:08;1.47;;;1.30;;
7045;SDS011;3564;53.326;10.356;2022-08-30T14:21:34;3.57;;;1.40;;
7045;SDS011;3564;53.326;10.356;2022-08-30T14:24:04;2.10;;;1.00;;
7045;SDS011;3564;53.326;10.356;2022-08-30T14:26:33;1.27;;;1.10;;
7045;SDS011;3564;53.326;10.356;2022-08-30T14:29:01;2.60;;;1.20;;
7045;SDS011;3564;53.326;10.356;2022-08-30T14:31:29;2.33;;;1.20;;
7045;SDS011;3564;53.326;10.356;2022-08-30T14:33:55;1.33;;;1.23;;
7045;SDS011;3564;53.326;10.356;2022-08-30T14:36:21;2.30;;;1.27;;
7045;SDS011;3564;53.326;10.356;2022-08-30T14:38:46;2.70;;;1.20;;
7045;SDS011;3564;53.326;10.356;2022-08-30T14:41:12;1.93;;;1.27;;
7045;SDS011;3564;53.326;10.356;2022-08-30T14:43:39;1.10;;;1.00;;
7045;SDS011;3564;53.326;10.356;2022-08-30T14:46:05;1.60;;;1.10;;
7045;SDS011;3564;53.326;10.356;2022-08-30T14:48:32;1.27;;;1.00;;
7045;SDS011;3564;53.326;10.356;2022-08-30T14:50:57;1.97;;;1.13;;
7045;SDS011;3564;53.326;10.356;2022-08-30T14:53:23;1.83;;;1.30;;
7045;SDS011;3564;53.326;10.356;2022-08-30T14:55:48;1.27;;;1.00;;
7045;SDS011;3564;53.326;10.356;2022-08-30T14:58:14;1.53;;;1.10;;
7045;SDS011;3564;53.326;10.356;2022-08-30T15:00:48;1.57;;;1.27;;
7045;SDS011;3564;53.326;10.356;2022-08-30T15:03:14;2.40;;;1.30;;
7045;SDS011;3564;53.326;10.356;2022-08-30T15:05:40;1.40;;;1.30;;
7045;SDS011;3564;53.326;10.356;2022-08-30T15:08:06;1.93;;;1.30;;
7045;SDS011;3564;53.326;10.356;2022-08-30T15:10:31;1.80;;;1.07;;
7045;SDS011;3564;53.326;10.356;2022-08-30T15:12:57;1.38;;;1.27;;
7045;SDS011;3564;53.326;10.356;2022-08-30T15:15:22;3.38;;;1.17;;
7045;SDS011;3564;53.326;10.356;2022-08-30T15:17:48;2.00;;;1.48;;
7045;SDS011;3564;53.326;10.356;2022-08-30T15:20:15;1.67;;;1.30;;
7045;SDS011;3564;53.326;10.356;2022-08-30T15:22:44;1.52;;;1.35;;
7045;SDS011;3564;53.326;10.356;2022-08-30T15:25:10;1.90;;;1.20;;
7045;SDS011;3564;53.326;10.356;2022-08-30T15:27:36;1.70;;;1.35;;
7045;SDS011;3564;53.326;10.356;2022-08-30T15:30:03;1.30;;;1.20;;
7045;SDS011;3564;53.326;10.356;2022-08-30T15:32:30;1.35;;;1.00;;
7045;SDS011;3564;53.326;10.356;2022-08-30T15:34:58;2.28;;;1.20;;
7045;SDS011;3564;53.326;10.356;2022-08-30T15:37:24;2.35;;;1.20;;
7045;SDS011;3564;53.326;10.356;2022-08-30T15:39:50;1.30;;;1.20;;
7045;SDS011;3564;53.326;10.356;2022-08-30T15:42:16;2.50;;;1.30;;
7045;SDS011;3564;53.326;10.356;2022-08-30T15:44:45;2.22;;;1.33;;
7045;SDS011;3564;53.326;10.356;2022-08-30T15:47:17;2.88;;;1.17;;
7045;SDS011;3564;53.326;10.356;2022-08-30T15:49:44;1.92;;;1.40;;
7045;SDS011;3564;53.326;10.356;2022-08-30T15:52:10;3.58;;;1.35;;
7045;SDS011;3564;53.326;10.356;2022-08-30T15:54:35;1.63;;;1.02;;
7045;SDS011;3564;53.326;10.356;2022-08-30T15:57:01;1.58;;;1.40;;
7045;SDS011;3564;53.326;10.356;2022-08-30T15:59:27;1.55;;;1.10;;
7045;SDS011;3564;53.326;10.356;2022-08-30T16:01:53;2.15;;;1.10;;
7045;SDS011;3564;53.326;10.356;2022-08-30T16:04:19;1.35;;;1.20;;
7045;SDS011;3564;53.326;10.356;2022-08-30T16:06:46;2.03;;;1.13;;
7045;SDS011;3564;53.326;10.356;2022-08-30T16:09:13;1.95;;;1.13;;
7045;SDS011;3564;53.326;10.356;2022-08-30T16:11:40;2.42;;;1.48;;
7045;SDS011;3564;53.326;10.356;2022-08-30T16:14:05;1.27;;;1.17;;
7045;SDS011;3564;53.326;10.356;2022-08-30T16:16:31;1.20;;;1.10;;
7045;SDS011;3564;53.326;10.356;2022-08-30T16:18:57;2.55;;;1.17;;
7045;SDS011;3564;53.326;10.356;2022-08-30T16:21:24;1.65;;;1.40;;
7045;SDS011;3564;53.326;10.356;2022-08-30T16:23:52;2.20;;;1.20;;
7045;SDS011;3564;53.326;10.356;2022-08-30T16:26:20;3.45;;;1.30;;
7045;SDS011;3564;53.326;10.356;2022-08-30T16:28:46;3.20;;;1.10;;
7045;SDS011;3564;53.326;10.356;2022-08-30T16:31:13;1.60;;;1.10;;
7045;SDS011;3564;53.326;10.356;2022-08-30T16:33:40;2.63;;;1.20;;
7045;SDS011;3564;53.326;10.356;2022-08-30T16:36:07;1.27;;;1.17;;
7045;SDS011;3564;53.326;10.356;2022-08-30T16:38:34;1.55;;;1.20;;
7045;SDS011;3564;53.326;10.356;2022-08-30T16:41:04;0.90;;;0.90;;
7045;SDS011;3564;53.326;10.356;2022-08-30T16:43:32;2.05;;;1.20;;
7045;SDS011;3564;53.326;10.356;2022-08-30T16:45:59;1.33;;;1.15;;
7045;SDS011;3564;53.326;10.356;2022-08-30T16:48:30;1.05;;;1.02;;
7045;SDS011;3564;53.326;10.356;2022-08-30T16:50:56;2.42;;;1.33;;